Time;durP1;ratioP1;P1;durP2;ratioP2;P2;SDS_P1;SDS_P2;PMS_P1;PMS_P2;Temp;Humidity;BMP_temperature;BMP_pressure;BME280_temperature;BME280_humidity;BME280_pressure;Samples;Min_cycle;Max_cycle;Signal;HPM_P1;HPM_P2
2022/12/30 00:00:57;;;;;;;0.00;0.00;;;7.20;86.60;;;;;;4993058;28;20046;-69
2022/12/30 00:03:23;;;;;;;0.00;0.00;;;7.20;86.70;;;;;;4993602;28;20046;-69
2022/12/30 00:05:49;;;;;;;0.00;0.00;;;7.20;86.70;;;;;;4993090;28;20169;-69
2022/12/30 00:10:59;;;;;;;0.45;0.45;;;7.20;86.60;;;;;;5013045;28;20073;-69
2022/12/30 00:33:07;;;;;;;0.00;0.00;;;7.00;86.60;;;;;;4973353;28;20109;-70
2022/12/30 00:35:37;;;;;;;0.20;0.20;;;6.90;86.90;;;;;;4976765;28;20459;-70
2022/12/30 00:38:03;;;;;;;0.00;0.00;;;6.90;87.00;;;;;;5000976;28;20041;-70
2022/12/30 00:40:29;;;;;;;0.00;0.00;;;6.90;87.10;;;;;;4997501;28;20105;-69
2022/12/30 00:43:09;;;;;;;0.10;0.10;;;6.90;87.20;;;;;;5007691;28;20521;-70
2022/12/30 00:45:38;;;;;;;0.15;0.15;;;6.80;87.20;;;;;;4996922;28;20080;-70
2022/12/30 00:56:18;;;;;;;0.00;0.00;;;6.70;87.40;;;;;;4993045;28;20054;-70
2022/12/30 00:58:43;;;;;;;23.80;0.88;;;6.70;87.40;;;;;;4987947;28;20069;-70
2022/12/30 01:01:09;;;;;;;0.00;0.00;;;6.70;87.50;;;;;;4993776;28;20042;-71
2022/12/30 01:03:34;;;;;;;0.10;0.10;;;6.70;87.30;;;;;;5000698;28;20038;-70
2022/12/30 01:06:08;;;;;;;0.00;0.00;;;6.70;87.20;;;;;;4974586;28;20142;-70
2022/12/30 01:08:34;;;;;;;0.00;0.00;;;6.70;87.30;;;;;;5001238;28;20042;-70
2022/12/30 01:11:04;;;;;;;0.10;0.10;;;6.70;87.10;;;;;;4992129;28;20480;-70
2022/12/30 01:13:30;;;;;;;0.30;0.30;;;6.70;87.00;;;;;;5006540;28;20561;-70
2022/12/30 01:15:56;;;;;;;0.10;0.10;;;6.70;87.00;;;;;;4991941;28;20138;-72
2022/12/30 01:18:21;;;;;;;0.40;0.40;;;6.70;87.10;;;;;;4982937;28;20129;-70
2022/12/30 01:20:47;;;;;;;0.10;0.10;;;6.60;87.20;;;;;;5002983;28;20046;-69
2022/12/30 01:23:13;;;;;;;0.20;0.20;;;6.60;87.30;;;;;;4992849;28;20072;-70
2022/12/30 01:25:40;;;;;;;0.10;0.10;;;6.70;87.40;;;;;;4974561;28;20936;-70
2022/12/30 01:28:05;;;;;;;1.25;1.25;;;6.70;87.50;;;;;;5010242;28;20117;-70
2022/12/30 01:30:31;;;;;;;0.00;0.00;;;6.60;87.60;;;;;;4991047;28;20048;-70
2022/12/30 01:32:57;;;;;;;0.00;0.00;;;6.60;87.70;;;;;;4998917;28;20380;-70
2022/12/30 01:35:22;;;;;;;0.35;0.35;;;6.60;87.80;;;;;;4991506;28;20472;-70
2022/12/30 01:37:48;;;;;;;0.00;0.00;;;6.60;88.00;;;;;;5003792;28;20084;-70
2022/12/30 01:40:13;;;;;;;34.45;1.55;;;6.70;88.00;;;;;;4999718;28;20397;-70
2022/12/30 01:42:41;;;;;;;0.00;0.00;;;6.60;88.10;;;;;;5008617;28;20160;-71
2022/12/30 01:45:25;;;;;;;0.00;0.00;;;6.60;88.10;;;;;;5003404;28;20058;-71
2022/12/30 01:48:11;;;;;;;0.00;0.00;;;6.60;88.10;;;;;;4986146;28;20773;-71
2022/12/30 01:51:03;;;;;;;0.00;0.00;;;6.60;88.10;;;;;;4991901;28;20050;-71
2022/12/30 01:53:36;;;;;;;0.00;0.00;;;6.60;88.10;;;;;;4995563;28;20049;-71
2022/12/30 01:56:04;;;;;;;0.00;0.00;;;6.60;88.20;;;;;;4990275;28;20054;-71
2022/12/30 01:58:56;;;;;;;0.00;0.00;;;6.50;88.30;;;;;;4991568;28;20050;-71
2022/12/30 02:01:21;;;;;;;0.00;0.00;;;6.50;88.30;;;;;;4964661;28;20598;-71
2022/12/30 02:04:11;;;;;;;0.00;0.00;;;6.60;88.40;;;;;;5000862;28;20096;-71
2022/12/30 02:06:58;;;;;;;0.00;0.00;;;6.50;88.50;;;;;;5003634;28;20221;-71
2022/12/30 02:09:28;;;;;;;0.00;0.00;;;6.50;88.50;;;;;;4997503;28;20034;-71
2022/12/30 02:11:55;;;;;;;0.00;0.00;;;6.50;88.60;;;;;;4993173;28;20057;-71
2022/12/30 02:14:21;;;;;;;0.00;0.00;;;6.50;88.60;;;;;;5003124;28;20042;-71
2022/12/30 02:17:04;;;;;;;0.00;0.00;;;6.60;88.80;;;;;;4995674;28;20042;-71
2022/12/30 02:19:48;;;;;;;0.00;0.00;;;6.60;88.80;;;;;;4985238;28;20437;-71
2022/12/30 02:22:35;;;;;;;0.00;0.00;;;6.60;89.00;;;;;;4979027;28;20042;-71
2022/12/30 02:25:25;;;;;;;0.00;0.00;;;6.50;89.30;;;;;;4993596;28;20366;-72
2022/12/30 02:28:26;;;;;;;0.00;0.00;;;6.60;89.50;;;;;;4999761;28;20088;-72
2022/12/30 02:31:13;;;;;;;0.08;0.08;;;6.50;89.70;;;;;;4894288;29;20052;-71
2022/12/30 02:34:08;;;;;;;0.00;0.00;;;6.50;89.90;;;;;;4995459;28;20133;-71
2022/12/30 02:36:46;;;;;;;0.00;0.00;;;6.50;90.00;;;;;;5005375;28;20045;-71
2022/12/30 02:39:21;;;;;;;0.10;0.10;;;6.40;89.90;;;;;;5004414;28;20042;-71
2022/12/30 02:44:53;;;;;;;0.00;0.00;;;6.40;89.90;;;;;;4989641;28;20540;-71
2022/12/30 02:47:39;;;;;;;0.08;0.08;;;6.40;90.10;;;;;;4967469;28;20037;-71
2022/12/30 02:52:57;;;;;;;0.10;0.10;;;6.20;90.10;;;;;;5005606;28;20050;-72
2022/12/30 02:55:23;;;;;;;0.00;0.00;;;6.20;90.30;;;;;;4971059;28;20060;-71
2022/12/30 02:57:49;;;;;;;0.00;0.00;;;6.20;90.50;;;;;;4963600;28;20065;-71
2022/12/30 03:06:09;;;;;;;0.10;0.10;;;6.10;90.70;;;;;;4999609;28;20062;-71
2022/12/30 03:08:43;;;;;;;0.95;0.70;;;6.10;90.70;;;;;;5007621;28;20050;-72
2022/12/30 03:11:17;;;;;;;0.30;0.30;;;6.10;90.90;;;;;;5007374;28;20510;-72
2022/12/30 03:14:01;;;;;;;0.00;0.00;;;6.10;90.80;;;;;;4995473;28;20499;-71
2022/12/30 03:16:34;;;;;;;0.00;0.00;;;6.10;90.90;;;;;;4990346;28;20049;-71
2022/12/30 03:19:13;;;;;;;0.43;0.43;;;6.10;91.00;;;;;;4998457;28;20077;-71
2022/12/30 03:21:40;;;;;;;0.00;0.00;;;6.00;91.10;;;;;;5005562;28;20045;-71
2022/12/30 03:27:04;;;;;;;0.00;0.00;;;6.00;91.20;;;;;;4977572;28;20509;-71
2022/12/30 03:29:51;;;;;;;0.10;0.10;;;6.00;91.30;;;;;;5005222;28;20081;-71
2022/12/30 03:32:18;;;;;;;0.00;0.00;;;6.00;91.30;;;;;;5006231;28;20050;-71
2022/12/30 03:34:45;;;;;;;0.00;0.00;;;6.00;91.50;;;;;;4994152;28;20442;-71
2022/12/30 03:37:31;;;;;;;0.10;0.10;;;6.00;91.60;;;;;;5003066;28;20049;-70
2022/12/30 03:40:10;;;;;;;0.00;0.00;;;6.00;91.60;;;;;;4989259;28;20049;-71
2022/12/30 03:42:36;;;;;;;0.00;0.00;;;6.00;91.60;;;;;;5000883;28;20483;-71
2022/12/30 03:45:02;;;;;;;0.00;0.00;;;5.90;91.60;;;;;;5001003;28;20092;-71
2022/12/30 03:47:28;;;;;;;0.03;0.03;;;6.00;91.60;;;;;;5005465;28;20051;-71
2022/12/30 03:49:54;;;;;;;0.75;0.75;;;5.90;91.60;;;;;;4992903;28;20096;-71
2022/12/30 03:52:20;;;;;;;0.03;0.03;;;5.90;91.60;;;;;;4994855;28;20462;-71
2022/12/30 03:54:47;;;;;;;0.00;0.00;;;5.90;91.70;;;;;;4979310;28;20057;-72
2022/12/30 03:57:13;;;;;;;0.15;0.15;;;5.90;91.80;;;;;;4996947;28;20046;-71
2022/12/30 03:59:40;;;;;;;0.10;0.10;;;5.90;91.80;;;;;;5009891;28;20045;-71
2022/12/30 04:02:06;;;;;;;0.00;0.00;;;5.90;91.80;;;;;;4997069;28;20074;-72
2022/12/30 04:04:31;;;;;;;0.00;0.00;;;5.80;91.90;;;;;;4993650;28;20081;-71
2022/12/30 04:06:57;;;;;;;0.00;0.00;;;5.80;92.00;;;;;;4994287;28;20042;-71
2022/12/30 04:09:23;;;;;;;0.00;0.00;;;5.80;92.10;;;;;;4977861;28;20156;-71
2022/12/30 04:11:48;;;;;;;0.10;0.10;;;5.80;92.00;;;;;;5007177;28;20049;-71
2022/12/30 04:14:14;;;;;;;0.00;0.00;;;5.80;92.00;;;;;;5004435;28;20045;-72
2022/12/30 04:16:39;;;;;;;0.00;0.00;;;5.90;92.00;;;;;;5009713;28;20050;-71
2022/12/30 04:19:05;;;;;;;0.00;0.00;;;5.80;92.00;;;;;;4964604;28;20045;-72
2022/12/30 04:21:31;;;;;;;0.00;0.00;;;5.80;92.20;;;;;;5004010;28;20077;-71
2022/12/30 04:23:56;;;;;;;0.30;0.30;;;5.80;92.20;;;;;;5011712;28;20042;-72
2022/12/30 04:26:22;;;;;;;0.00;0.00;;;5.80;92.20;;;;;;5010209;28;20053;-72
2022/12/30 04:28:47;;;;;;;0.00;0.00;;;5.80;92.20;;;;;;4974145;28;20066;-71
2022/12/30 04:31:13;;;;;;;0.00;0.00;;;5.70;92.20;;;;;;5011177;28;20054;-71
2022/12/30 04:33:39;;;;;;;0.00;0.00;;;5.80;92.20;;;;;;4999985;28;20655;-71
2022/12/30 04:36:05;;;;;;;0.00;0.00;;;5.80;92.20;;;;;;4994258;28;20031;-71
2022/12/30 04:38:32;;;;;;;0.00;0.00;;;5.80;92.30;;;;;;4982110;28;20052;-71
2022/12/30 04:40:57;;;;;;;0.00;0.00;;;5.70;92.30;;;;;;4998021;28;20056;-71
2022/12/30 04:43:23;;;;;;;0.00;0.00;;;5.80;92.40;;;;;;5005731;28;20426;-71
2022/12/30 04:45:48;;;;;;;0.00;0.00;;;5.80;92.50;;;;;;5007720;28;20062;-72
2022/12/30 04:48:14;;;;;;;0.00;0.00;;;5.80;92.60;;;;;;5007187;28;20065;-71
2022/12/30 04:50:42;;;;;;;0.00;0.00;;;5.90;92.50;;;;;;5011272;28;20046;-71
2022/12/30 04:53:08;;;;;;;0.00;0.00;;;5.80;92.60;;;;;;4968714;28;20104;-71
2022/12/30 04:55:33;;;;;;;0.10;0.10;;;5.80;92.60;;;;;;5004507;28;20049;-71
2022/12/30 04:57:59;;;;;;;0.00;0.00;;;5.80;92.70;;;;;;5006872;28;20038;-71
2022/12/30 05:00:24;;;;;;;0.00;0.00;;;5.80;92.60;;;;;;4993670;28;20034;-71
2022/12/30 05:02:50;;;;;;;0.00;0.00;;;5.90;92.60;;;;;;4960834;28;20046;-71
2022/12/30 05:05:16;;;;;;;0.00;0.00;;;5.80;92.60;;;;;;4992346;28;20050;-71
2022/12/30 05:07:41;;;;;;;0.00;0.00;;;5.80;92.60;;;;;;5006578;28;20050;-72
2022/12/30 05:10:07;;;;;;;0.00;0.00;;;5.80;92.70;;;;;;4975832;28;20407;-71
2022/12/30 05:12:32;;;;;;;0.00;0.00;;;5.80;92.60;;;;;;5009840;28;20524;-71
2022/12/30 05:14:58;;;;;;;0.00;0.00;;;5.80;92.70;;;;;;5009245;28;20080;-71
2022/12/30 05:17:24;;;;;;;0.00;0.00;;;5.90;92.60;;;;;;4959459;28;20548;-71
2022/12/30 05:19:49;;;;;;;0.00;0.00;;;5.90;92.60;;;;;;5002128;28;20038;-71
2022/12/30 05:22:15;;;;;;;1.77;1.63;;;5.90;92.60;;;;;;4991194;28;20415;-71
2022/12/30 05:27:25;;;;;;;0.00;0.00;;;6.00;92.60;;;;;;4985271;28;20453;-71
2022/12/30 05:29:50;;;;;;;0.00;0.00;;;6.10;92.60;;;;;;5008423;28;20096;-71
2022/12/30 05:32:16;;;;;;;0.00;0.00;;;6.00;92.70;;;;;;4992122;28;20478;-71
2022/12/30 05:34:41;;;;;;;0.00;0.00;;;6.10;92.60;;;;;;4991782;28;20057;-71
2022/12/30 05:37:07;;;;;;;0.00;0.00;;;6.10;92.50;;;;;;4999228;28;20038;-71
2022/12/30 05:39:32;;;;;;;0.00;0.00;;;6.00;92.40;;;;;;5009747;28;20144;-71
2022/12/30 05:41:58;;;;;;;0.00;0.00;;;6.00;92.40;;;;;;4971083;28;20046;-71
2022/12/30 05:44:25;;;;;;;0.00;0.00;;;6.00;92.30;;;;;;4975102;28;20117;-70
2022/12/30 05:46:51;;;;;;;0.00;0.00;;;6.00;92.40;;;;;;4985678;28;20519;-71
2022/12/30 05:49:17;;;;;;;0.00;0.00;;;6.00;92.30;;;;;;4989482;28;20062;-71
2022/12/30 05:51:42;;;;;;;0.00;0.00;;;6.00;92.30;;;;;;4988405;28;20048;-70
2022/12/30 05:54:08;;;;;;;0.00;0.00;;;6.00;92.30;;;;;;4990610;28;20443;-70
2022/12/30 05:56:34;;;;;;;0.00;0.00;;;6.00;92.30;;;;;;4987653;28;20038;-70
2022/12/30 05:58:59;;;;;;;0.00;0.00;;;5.90;92.10;;;;;;4989846;28;20491;-70
2022/12/30 06:01:25;;;;;;;0.00;0.00;;;5.90;92.20;;;;;;4983237;28;20082;-70
2022/12/30 06:03:55;;;;;;;0.00;0.00;;;5.90;92.10;;;;;;4976560;28;20030;-70
2022/12/30 06:06:20;;;;;;;0.10;0.10;;;5.80;92.00;;;;;;4989474;28;20065;-70
2022/12/30 06:08:46;;;;;;;0.00;0.00;;;5.80;92.10;;;;;;4989983;28;20042;-71
2022/12/30 06:11:12;;;;;;;0.00;0.00;;;5.70;92.00;;;;;;4987002;28;20050;-71
2022/12/30 06:13:37;;;;;;;0.00;0.00;;;5.70;92.00;;;;;;4989141;28;20456;-70
2022/12/30 06:16:03;;;;;;;0.35;0.35;;;5.60;91.90;;;;;;4989274;28;20097;-70
2022/12/30 06:18:29;;;;;;;0.30;0.30;;;5.60;91.90;;;;;;4969876;28;20038;-71
2022/12/30 06:20:55;;;;;;;0.00;0.00;;;5.60;91.80;;;;;;4988863;28;20461;-71
2022/12/30 06:23:21;;;;;;;0.00;0.00;;;5.50;91.90;;;;;;4988980;28;20046;-70
2022/12/30 06:25:54;;;;;;;0.00;0.00;;;5.60;91.90;;;;;;4988240;28;20050;-70
2022/12/30 06:28:20;;;;;;;0.10;0.10;;;5.50;91.90;;;;;;4988554;28;20046;-70
2022/12/30 06:30:47;;;;;;;0.08;0.08;;;5.50;91.90;;;;;;4968400;28;20042;-70
2022/12/30 06:33:13;;;;;;;0.00;0.00;;;5.50;91.80;;;;;;4981199;28;20561;-70
2022/12/30 06:35:39;;;;;;;0.00;0.00;;;5.40;91.90;;;;;;4987478;28;20050;-70
2022/12/30 06:38:04;;;;;;;0.00;0.00;;;5.40;91.90;;;;;;4971981;28;20054;-71
2022/12/30 06:40:30;;;;;;;0.10;0.10;;;5.40;91.90;;;;;;4988444;28;20046;-70
2022/12/30 06:42:56;;;;;;;0.00;0.00;;;5.50;91.90;;;;;;4970980;28;20465;-70
2022/12/30 06:45:21;;;;;;;0.00;0.00;;;5.40;91.80;;;;;;4987198;28;20495;-70
2022/12/30 06:47:47;;;;;;;0.10;0.10;;;5.40;91.90;;;;;;5007536;28;20034;-71
2022/12/30 06:50:12;;;;;;;0.00;0.00;;;5.40;91.90;;;;;;5008821;28;20122;-71
2022/12/30 06:52:38;;;;;;;0.00;0.00;;;5.40;91.90;;;;;;5008784;28;20402;-71
2022/12/30 06:55:05;;;;;;;0.10;0.10;;;5.30;91.90;;;;;;4994869;28;20191;-71
2022/12/30 06:57:30;;;;;;;0.00;0.00;;;5.30;91.90;;;;;;4990500;28;20126;-70
2022/12/30 06:59:56;;;;;;;0.00;0.00;;;5.30;91.90;;;;;;5004448;28;20077;-71
2022/12/30 07:02:22;;;;;;;0.00;0.00;;;5.30;91.90;;;;;;4989665;28;20491;-71
2022/12/30 07:04:47;;;;;;;0.00;0.00;;;5.30;91.90;;;;;;4994880;28;20042;-70
2022/12/30 07:07:13;;;;;;;0.10;0.10;;;5.30;92.00;;;;;;5001988;28;20069;-71
2022/12/30 07:09:39;;;;;;;0.00;0.00;;;5.30;92.00;;;;;;4993010;28;20057;-70
2022/12/30 07:12:04;;;;;;;0.00;0.00;;;5.30;91.90;;;;;;5010551;28;20069;-71
2022/12/30 07:14:30;;;;;;;5.18;1.77;;;5.30;91.90;;;;;;4994212;28;20042;-71
2022/12/30 07:16:55;;;;;;;0.20;0.20;;;5.20;91.90;;;;;;5012292;28;20068;-71
2022/12/30 07:19:21;;;;;;;0.00;0.00;;;5.20;91.90;;;;;;5005897;28;20076;-71
2022/12/30 07:21:47;;;;;;;0.00;0.00;;;5.20;91.80;;;;;;5011719;28;20054;-69
2022/12/30 07:24:13;;;;;;;0.00;0.00;;;5.20;91.80;;;;;;4998409;28;20086;-70
2022/12/30 07:26:38;;;;;;;0.00;0.00;;;5.20;91.90;;;;;;5010644;28;20143;-71
2022/12/30 07:29:04;;;;;;;0.00;0.00;;;5.20;91.80;;;;;;5010008;28;20108;-71
2022/12/30 07:31:29;;;;;;;1.23;1.13;;;5.20;91.80;;;;;;5010790;28;20438;-71
2022/12/30 07:33:55;;;;;;;0.00;0.00;;;5.10;91.70;;;;;;4994316;28;20145;-71
2022/12/30 07:36:21;;;;;;;0.00;0.00;;;5.10;91.80;;;;;;4994599;28;21321;-71
2022/12/30 07:38:46;;;;;;;0.00;0.00;;;5.10;91.70;;;;;;5010792;28;20494;-71
2022/12/30 07:41:12;;;;;;;0.00;0.00;;;5.10;91.80;;;;;;5011488;28;20073;-71
2022/12/30 07:43:38;;;;;;;0.00;0.00;;;5.10;91.70;;;;;;5010864;28;20056;-71
2022/12/30 07:46:08;;;;;;;0.00;0.00;;;5.10;91.80;;;;;;5011056;28;20566;-71
2022/12/30 07:48:34;;;;;;;0.00;0.00;;;5.10;91.80;;;;;;5011368;28;20136;-71
2022/12/30 07:51:04;;;;;;;0.00;0.00;;;5.00;91.80;;;;;;4994544;28;20072;-71
2022/12/30 07:53:31;;;;;;;0.00;0.00;;;5.00;91.80;;;;;;5007462;28;20062;-70
2022/12/30 07:55:57;;;;;;;0.00;0.00;;;5.00;91.80;;;;;;4981434;28;20084;-71
2022/12/30 07:58:22;;;;;;;0.00;0.00;;;5.00;91.90;;;;;;4995626;28;20936;-70
2022/12/30 08:00:48;;;;;;;0.25;0.25;;;5.00;91.80;;;;;;4965511;28;20117;-70
2022/12/30 08:03:13;;;;;;;0.00;0.00;;;5.00;91.90;;;;;;5000782;28;20050;-70
2022/12/30 08:05:39;;;;;;;0.00;0.00;;;5.00;91.90;;;;;;5003189;28;20069;-70
2022/12/30 08:08:05;;;;;;;0.00;0.00;;;5.00;92.00;;;;;;5006460;28;20774;-70
2022/12/30 08:10:30;;;;;;;0.00;0.00;;;5.00;92.00;;;;;;4997826;28;20041;-71
2022/12/30 08:12:56;;;;;;;0.00;0.00;;;5.00;92.10;;;;;;4988030;28;20406;-71
2022/12/30 08:15:21;;;;;;;0.00;0.00;;;5.00;92.10;;;;;;5008202;28;20087;-69
2022/12/30 08:17:47;;;;;;;0.00;0.00;;;5.00;92.00;;;;;;5009502;28;20112;-69
2022/12/30 08:20:12;;;;;;;0.10;0.10;;;5.00;92.10;;;;;;4990997;28;20060;-69
2022/12/30 08:22:41;;;;;;;0.00;0.00;;;5.00;92.10;;;;;;5008744;28;20033;-67
2022/12/30 08:25:07;;;;;;;0.00;0.00;;;5.00;92.20;;;;;;5004437;28;20050;-69
2022/12/30 08:27:33;;;;;;;0.10;0.10;;;5.10;92.20;;;;;;4979700;28;20069;-69
2022/12/30 08:29:59;;;;;;;0.10;0.10;;;5.00;92.20;;;;;;5006793;28;20165;-69
2022/12/30 08:32:24;;;;;;;0.00;0.00;;;5.00;92.20;;;;;;4973541;28;20468;-69
2022/12/30 08:34:50;;;;;;;0.68;0.68;;;5.00;92.20;;;;;;5007004;28;20045;-69
2022/12/30 08:37:16;;;;;;;0.08;0.08;;;5.10;92.20;;;;;;5006782;28;20037;-68
2022/12/30 08:39:41;;;;;;;0.00;0.00;;;5.10;92.20;;;;;;5007589;28;20124;-67
2022/12/30 08:42:08;;;;;;;0.00;0.00;;;5.10;92.20;;;;;;5004897;28;20438;-69
2022/12/30 08:44:33;;;;;;;0.00;0.00;;;5.10;92.30;;;;;;4987170;28;20057;-69
2022/12/30 08:46:59;;;;;;;0.22;0.20;;;5.10;92.30;;;;;;4998883;28;20466;-69
2022/12/30 08:49:25;;;;;;;0.00;0.00;;;5.10;92.40;;;;;;5010045;28;20054;-69
2022/12/30 08:51:50;;;;;;;1.05;0.98;;;5.10;92.30;;;;;;5010968;28;20120;-69
2022/12/30 08:54:16;;;;;;;0.00;0.00;;;5.10;92.40;;;;;;4972028;28;20148;-69
2022/12/30 08:56:42;;;;;;;0.22;0.22;;;5.10;92.40;;;;;;4964493;28;20125;-70
2022/12/30 08:59:11;;;;;;;0.00;0.00;;;5.10;92.40;;;;;;4973017;28;20130;-69
2022/12/30 09:01:40;;;;;;;0.00;0.00;;;5.10;92.50;;;;;;4990880;28;20042;-69
2022/12/30 09:04:06;;;;;;;0.00;0.00;;;6.00;95.60;;;;;;4991548;28;20146;-70
2022/12/30 09:06:34;;;;;;;0.00;0.00;;;5.70;92.40;;;;;;4974309;28;20058;-69
2022/12/30 09:09:00;;;;;;;0.00;0.00;;;5.50;92.20;;;;;;4991173;28;20110;-70
2022/12/30 09:11:30;;;;;;;0.00;0.00;;;5.50;92.40;;;;;;4990272;28;20541;-70
2022/12/30 09:13:56;;;;;;;0.57;0.57;;;5.60;92.40;;;;;;4957320;28;20557;-70
2022/12/30 09:16:23;;;;;;;0.10;0.10;;;5.60;92.20;;;;;;4990852;28;20050;-70
2022/12/30 09:18:50;;;;;;;0.00;0.00;;;5.60;92.20;;;;;;4990577;28;20038;-70
2022/12/30 09:21:16;;;;;;;0.00;0.00;;;5.50;92.20;;;;;;4989674;28;20057;-70
2022/12/30 09:23:41;;;;;;;0.20;0.20;;;5.50;92.10;;;;;;4974819;28;20486;-70
2022/12/30 09:26:08;;;;;;;0.00;0.00;;;5.50;92.10;;;;;;4991027;28;20043;-69
2022/12/30 09:28:35;;;;;;;0.25;0.25;;;5.50;92.00;;;;;;4990479;28;20113;-70
2022/12/30 09:31:00;;;;;;;0.00;0.00;;;5.50;92.10;;;;;;4989320;28;20081;-69
2022/12/30 09:33:26;;;;;;;0.00;0.00;;;5.60;92.00;;;;;;4972468;28;20160;-69
2022/12/30 09:35:51;;;;;;;0.00;0.00;;;5.60;92.00;;;;;;4990687;28;20038;-69
2022/12/30 09:38:17;;;;;;;0.00;0.00;;;5.60;91.90;;;;;;4972904;28;20050;-69
2022/12/30 09:40:57;;;;;;;0.28;0.28;;;5.60;91.80;;;;;;4990345;28;20093;-70
2022/12/30 09:43:41;;;;;;;0.00;0.00;;;5.60;91.90;;;;;;4990646;28;20414;-70
2022/12/30 09:46:25;;;;;;;0.00;0.00;;;5.60;91.80;;;;;;4975420;28;20058;-70
2022/12/30 09:48:54;;;;;;;0.00;0.00;;;5.70;91.80;;;;;;4966017;28;20062;-69
2022/12/30 09:51:27;;;;;;;0.30;0.30;;;5.70;91.80;;;;;;4973617;28;20042;-69
2022/12/30 09:54:10;;;;;;;0.10;0.10;;;5.70;91.80;;;;;;4942931;28;20063;-70
2022/12/30 09:56:39;;;;;;;0.45;0.45;;;5.70;91.80;;;;;;4961206;28;20477;-69
2022/12/30 09:59:15;;;;;;;0.00;0.00;;;5.80;91.70;;;;;;4962210;28;20051;-70
2022/12/30 10:02:16;;;;;;;0.00;0.00;;;5.80;91.70;;;;;;4979233;28;20064;-69
2022/12/30 10:04:41;;;;;;;0.00;0.00;;;5.80;91.70;;;;;;4975644;28;20058;-70
2022/12/30 10:07:29;;;;;;;0.00;0.00;;;5.90;91.70;;;;;;4981095;28;20053;-70
2022/12/30 10:10:06;;;;;;;0.00;0.00;;;5.90;91.60;;;;;;4980470;28;20058;-70
2022/12/30 10:12:46;;;;;;;0.00;0.00;;;6.00;91.60;;;;;;4986638;28;20057;-70
2022/12/30 10:15:48;;;;;;;0.00;0.00;;;6.00;91.60;;;;;;4972504;28;20072;-70
2022/12/30 10:18:23;;;;;;;0.00;0.00;;;6.00;91.60;;;;;;4986821;28;20068;-70
2022/12/30 10:21:27;;;;;;;0.10;0.10;;;6.10;91.40;;;;;;4974893;28;20500;-70
2022/12/30 10:24:18;;;;;;;0.00;0.00;;;6.10;91.50;;;;;;4988478;28;20059;-70
2022/12/30 10:26:56;;;;;;;0.20;0.20;;;6.10;91.50;;;;;;4989405;28;20062;-70
2022/12/30 10:29:32;;;;;;;0.00;0.00;;;6.20;91.40;;;;;;4966317;28;20298;-70
2022/12/30 10:32:16;;;;;;;0.00;0.00;;;6.10;91.40;;;;;;4994497;28;20085;-71
2022/12/30 10:34:44;;;;;;;0.00;0.00;;;6.20;91.30;;;;;;4988616;28;20054;-71
2022/12/30 10:37:33;;;;;;;0.00;0.00;;;6.20;91.50;;;;;;4984836;28;20499;-71
2022/12/30 10:40:00;;;;;;;0.00;0.00;;;6.20;91.40;;;;;;4972034;28;20054;-72
2022/12/30 10:42:47;;;;;;;0.00;0.00;;;6.30;91.40;;;;;;4988240;28;20522;-71
2022/12/30 10:45:26;;;;;;;0.00;0.00;;;6.30;91.20;;;;;;4995563;28;20081;-71
2022/12/30 10:48:22;;;;;;;0.00;0.00;;;6.30;91.20;;;;;;4974169;28;20046;-71
2022/12/30 10:50:49;;;;;;;0.00;0.00;;;6.30;91.30;;;;;;4964846;28;20073;-71
2022/12/30 10:53:18;;;;;;;0.10;0.10;;;6.40;91.30;;;;;;4982666;28;20132;-71
2022/12/30 10:55:59;;;;;;;0.00;0.00;;;6.40;91.30;;;;;;5003868;28;20053;-71
2022/12/30 10:58:30;;;;;;;0.80;0.52;;;6.40;91.30;;;;;;4986221;28;20185;-71
2022/12/30 11:00:55;;;;;;;0.00;0.00;;;6.50;91.30;;;;;;4980885;28;20449;-71
2022/12/30 11:03:30;;;;;;;0.00;0.00;;;6.60;91.20;;;;;;5006252;28;20176;-71
2022/12/30 11:05:57;;;;;;;0.08;0.08;;;6.60;91.30;;;;;;5008095;28;20682;-71
2022/12/30 11:08:28;;;;;;;0.00;0.00;;;6.60;91.20;;;;;;4991066;28;20101;-71
2022/12/30 11:11:03;;;;;;;0.65;0.65;;;6.70;90.90;;;;;;5006118;28;20041;-71
2022/12/30 11:16:16;;;;;;;0.68;0.68;;;6.70;90.90;;;;;;4993958;28;20047;-71
2022/12/30 11:18:45;;;;;;;0.00;0.00;;;6.70;90.80;;;;;;5008999;28;20426;-71
2022/12/30 11:21:11;;;;;;;0.00;0.00;;;6.70;90.80;;;;;;4982768;28;20084;-71
2022/12/30 11:23:40;;;;;;;0.00;0.00;;;6.70;90.70;;;;;;4989427;28;20074;-71
2022/12/30 11:26:17;;;;;;;0.20;0.20;;;6.70;90.80;;;;;;4971699;28;20051;-72
2022/12/30 11:28:53;;;;;;;0.00;0.00;;;6.70;90.70;;;;;;5001020;28;20053;-70
2022/12/30 11:31:19;;;;;;;0.00;0.00;;;6.70;90.80;;;;;;4982466;28;20534;-71
2022/12/30 11:33:52;;;;;;;0.10;0.10;;;6.70;90.80;;;;;;4971611;28;20054;-72
2022/12/30 11:36:31;;;;;;;0.00;0.00;;;6.70;90.90;;;;;;4988107;28;20042;-70
2022/12/30 11:39:10;;;;;;;0.05;0.05;;;6.70;90.80;;;;;;4971611;28;20042;-71
2022/12/30 11:41:50;;;;;;;0.00;0.00;;;6.70;90.90;;;;;;4989216;28;20035;-71
2022/12/30 11:44:21;;;;;;;0.00;0.00;;;6.70;90.80;;;;;;4988939;28;20038;-70
2022/12/30 11:46:52;;;;;;;0.08;0.08;;;6.80;90.90;;;;;;4989373;28;20050;-70
2022/12/30 11:49:32;;;;;;;0.00;0.00;;;6.70;91.00;;;;;;5001042;28;20049;-70
2022/12/30 11:52:19;;;;;;;0.00;0.00;;;6.80;91.00;;;;;;5006209;28;20054;-70
2022/12/30 11:54:52;;;;;;;0.00;0.00;;;6.90;90.90;;;;;;4984206;28;20046;-72
2022/12/30 11:57:20;;;;;;;0.00;0.00;;;6.90;90.90;;;;;;4981067;28;20125;-72
2022/12/30 11:59:49;;;;;;;0.00;0.00;;;6.90;90.90;;;;;;4987517;28;20038;-71
2022/12/30 12:02:32;;;;;;;0.00;0.00;;;6.90;90.90;;;;;;4981265;28;20066;-71
2022/12/30 12:04:58;;;;;;;0.00;0.00;;;7.00;90.90;;;;;;4968982;28;20042;-69
2022/12/30 12:07:35;;;;;;;0.00;0.00;;;7.10;90.80;;;;;;4989613;28;20407;-70
2022/12/30 12:10:28;;;;;;;0.00;0.00;;;7.10;90.80;;;;;;4989946;28;20042;-70
2022/12/30 12:12:59;;;;;;;0.08;0.08;;;7.20;90.60;;;;;;4982371;28;20066;-70
2022/12/30 12:15:44;;;;;;;0.00;0.00;;;7.20;90.30;;;;;;4988592;28;20038;-70
2022/12/30 12:18:22;;;;;;;0.00;0.00;;;7.30;90.30;;;;;;4955563;28;20117;-70
2022/12/30 12:21:18;;;;;;;0.00;0.00;;;7.30;90.20;;;;;;4971970;28;20050;-70
2022/12/30 12:23:48;;;;;;;0.00;0.00;;;7.50;89.90;;;;;;4989094;28;20114;-71
2022/12/30 12:26:50;;;;;;;0.00;0.00;;;7.50;89.70;;;;;;4971125;28;20042;-71
2022/12/30 12:29:16;;;;;;;0.08;0.08;;;7.60;89.40;;;;;;4947528;28;20061;-71
2022/12/30 12:31:57;;;;;;;0.00;0.00;;;7.50;89.30;;;;;;4986721;28;20398;-71
2022/12/30 12:34:26;;;;;;;0.00;0.00;;;7.60;89.40;;;;;;4989391;28;20047;-70
2022/12/30 12:37:18;;;;;;;0.00;0.00;;;7.60;89.30;;;;;;4969407;28;20054;-72
2022/12/30 12:40:02;;;;;;;0.00;0.00;;;7.50;89.10;;;;;;4955227;28;20137;-72
2022/12/30 12:42:56;;;;;;;0.00;0.00;;;7.50;89.10;;;;;;4955317;28;20050;-71
2022/12/30 12:45:34;;;;;;;0.00;0.00;;;7.60;88.80;;;;;;4985569;28;20112;-72
2022/12/30 12:48:26;;;;;;;0.00;0.00;;;7.60;88.80;;;;;;4979695;28;20055;-72
2022/12/30 12:51:10;;;;;;;0.00;0.00;;;7.60;88.80;;;;;;4980546;28;20138;-72
2022/12/30 12:54:04;;;;;;;0.00;0.00;;;7.60;88.60;;;;;;4945723;28;20057;-72
2022/12/30 12:56:48;;;;;;;0.00;0.00;;;7.60;88.50;;;;;;4979718;28;20054;-72
2022/12/30 12:59:22;;;;;;;0.00;0.00;;;7.70;88.30;;;;;;4979973;28;20547;-71
2022/12/30 13:02:09;;;;;;;0.00;0.00;;;7.60;88.10;;;;;;4962744;28;20080;-71
2022/12/30 13:04:53;;;;;;;0.00;0.00;;;7.70;88.10;;;;;;4945630;28;20055;-71
2022/12/30 13:07:28;;;;;;;0.00;0.00;;;7.70;87.60;;;;;;4977889;28;20046;-72
2022/12/30 13:10:26;;;;;;;0.10;0.10;;;7.70;87.60;;;;;;4959757;28;20086;-72
2022/12/30 13:13:40;;;;;;;0.00;0.00;;;7.70;87.40;;;;;;4961737;28;20145;-72
2022/12/30 13:16:11;;;;;;;0.20;0.20;;;7.80;87.40;;;;;;4936738;28;20058;-71
2022/12/30 13:18:41;;;;;;;0.00;0.00;;;7.80;87.20;;;;;;4978400;28;20053;-71
2022/12/30 13:21:12;;;;;;;0.00;0.00;;;7.90;87.10;;;;;;4961281;28;20042;-72
2022/12/30 13:23:45;;;;;;;0.00;0.00;;;7.90;87.30;;;;;;4977823;28;20575;-71
2022/12/30 13:26:10;;;;;;;0.10;0.10;;;7.90;87.30;;;;;;4946498;28;20050;-71
2022/12/30 13:28:37;;;;;;;0.08;0.08;;;7.90;87.10;;;;;;4961821;28;20086;-72
2022/12/30 13:31:34;;;;;;;0.00;0.00;;;7.90;87.20;;;;;;4945015;28;20050;-71
2022/12/30 13:34:14;;;;;;;0.00;0.00;;;7.90;87.10;;;;;;4975227;28;20596;-71
2022/12/30 13:37:05;;;;;;;0.00;0.00;;;8.00;87.10;;;;;;4984324;28;20053;-71
2022/12/30 13:39:52;;;;;;;0.10;0.10;;;8.00;87.10;;;;;;4975954;28;20138;-71
2022/12/30 13:42:46;;;;;;;0.00;0.00;;;8.00;87.10;;;;;;4979463;28;20058;-71
2022/12/30 13:45:21;;;;;;;0.00;0.00;;;8.10;87.10;;;;;;4950284;28;20049;-71
2022/12/30 13:47:48;;;;;;;0.00;0.00;;;8.10;87.10;;;;;;5001465;28;20141;-71
2022/12/30 13:50:19;;;;;;;0.00;0.00;;;8.10;87.10;;;;;;5006432;28;20050;-71
2022/12/30 13:52:48;;;;;;;4.07;1.17;;;8.10;87.20;;;;;;4994463;28;20049;-71
2022/12/30 13:55:27;;;;;;;0.10;0.10;;;8.10;87.20;;;;;;4993043;28;20042;-71
2022/12/30 13:58:21;;;;;;;0.00;0.00;;;8.00;87.30;;;;;;4996841;28;20113;-71
2022/12/30 14:01:08;;;;;;;0.00;0.00;;;8.10;87.60;;;;;;5004163;28;20658;-71
2022/12/30 14:03:36;;;;;;;6.60;3.75;;;8.10;87.80;;;;;;5005524;28;20402;-71
2022/12/30 14:06:22;;;;;;;0.00;0.00;;;8.10;87.90;;;;;;5008642;28;20046;-70
2022/12/30 14:09:07;;;;;;;0.00;0.00;;;8.10;88.00;;;;;;5004171;28;20491;-71
2022/12/30 14:11:33;;;;;;;0.15;0.15;;;8.10;88.00;;;;;;5007676;28;20113;-68